MROCMRLB

Guest
Details From MROC - San Jose Juan Santamaria Intl
To MRLB - Daniel Oduber Quiros Intl
Flight Number -
Tags Generated
Created
Modified
Stats Distance 87 nm / 161 km
Max Altitude 0 ft / 0 m
Waypoints 2
Social Downloads 12
Likes 0
Share VATSIM

Download

Looking for another format? Having issues loading an existing format? Contact us
Advertisement - Login to hide

Notes

Generated

Route

MROC MRLB

ID Type Via Altitude Latitude Longitude Leg Dist Tot Dist Heading (true) Name
O MROC APT - 0 ft / 0 m 9.98900˚ -84.22186˚ - 0 nm - -
O MRLB APT - 0 ft / 0 m 10.58905˚ -85.55629˚ 86 nm 86 nm 295° / 294° -

Altitude Profile

Advertisement - Login to hide

MROC

Details ICAO MROC (SJO)
Name San Jose Juan Santamaria Intl
Region Costa Rica
Timezone America/Costa_Rica (UTC-6.0)
Stats Elevation 3,021 ft / 921 m (AMSL)
Location 9.993927° -84.208884°
Runways 1
Magnetic Variation 1.781° W

METAR

MROC 201600Z 28005KT 240V350 9999 FEW025 SCT050 BKN200 24/19 A3004 NOSIG

Decode

TAF

TAF MROC 201100Z 2012/2112 26005KT 9999 FEW030 TX28/2019Z TN19/2019Z BECMG 2015/2017 24007KT TEMPO 2018/2023 SHRA SCT015TCU TEMPO 2100/2106 5000 BR BKN015

Decode

Departure Runways

ID Width Length Bearing (true) Bearing (mag) Surface Threshold Offset Overrun Length
07 151 ft / 46 m 9,994 ft / 3,046 m 68.91° 70.69° Asphalt 0 ft / 0 m 200 ft / 61 m
25 151 ft / 46 m 9,994 ft / 3,046 m 248.92° 250.70° Asphalt 1,969 ft / 600 m 200 ft / 61 m

MRLB

Details ICAO MRLB (LIR)
Name Daniel Oduber Quiros Intl
Region Costa Rica
Timezone America/Costa_Rica (UTC-6.0)
Stats Elevation 270 ft / 82 m (AMSL)
Location 10.593289° -85.544410°
Runways 1
Magnetic Variation 1.103° W

METAR

MRLB 201600Z 20007KT 9999 FEW045 BKN220 28/24 A2988 NOSIG

Decode

TAF

TAF MRLB 201100Z 2012/2112 10005KT 9999 FEW040 TX32/2019Z TN23/2112Z BECMG 2015/2017 28010KT TEMPO 2021/2024 SHRA FEW025TCU TEMPO 2103/2106 06005KT

Decode

Destination Runways

ID Width Length Bearing (true) Bearing (mag) Surface Threshold Offset Overrun Length
07 148 ft / 45 m 9,068 ft / 2,764 m 70.05° 71.15° Asphalt 0 ft / 0 m 0 ft / 0 m
25 148 ft / 45 m 9,068 ft / 2,764 m 250.05° 251.15° Asphalt 0 ft / 0 m 0 ft / 0 m

Popular Alternatives